Time;durP1;ratioP1;P1;durP2;ratioP2;P2;SDS_P1;SDS_P2;PMS_P1;PMS_P2;Temp;Humidity;BMP_temperature;BMP_pressure;BME280_temperature;BME280_humidity;BME280_pressure;Samples;Min_cycle;Max_cycle;Signal;HPM_P1;HPM_P2
2023/10/23 00:02:17;;;;;;;1999.90;999.90;;;;;;;;;;4995044;28;20022;-93
2023/10/23 00:04:43;;;;;;;1999.90;999.90;;;;;;;;;;4995093;28;20431;-95
2023/10/23 00:07:09;;;;;;;1999.90;999.90;;;;;;;;;;4995365;28;20027;-95
2023/10/23 00:09:35;;;;;;;1999.90;999.90;;;;;;;;;;4994564;28;20029;-93
2023/10/23 00:12:02;;;;;;;1999.90;999.90;;;;;;;;;;4994610;28;20034;-93
2023/10/23 00:14:28;;;;;;;1999.90;999.90;;;;;;;;;;4994611;28;20472;-94
2023/10/23 00:16:54;;;;;;;1999.90;999.90;;;;;;;;;;4994597;28;20026;-94
2023/10/23 00:19:21;;;;;;;1999.90;999.90;;;;;;;;;;4994454;28;20026;-95
2023/10/23 00:21:49;;;;;;;1999.90;999.90;;;;;;;;;;4994743;28;20034;-95
2023/10/23 00:24:15;;;;;;;1999.90;999.90;;;;;;;;;;4994609;28;20030;-94
2023/10/23 00:26:41;;;;;;;1999.90;999.90;;;;;;;;;;4994581;28;20034;-93
2023/10/23 00:29:08;;;;;;;1999.90;999.90;;;;;;;;;;4994542;28;20054;-94
2023/10/23 00:31:34;;;;;;;1999.90;999.90;;;;;;;;;;4994897;28;20085;-94
2023/10/23 00:34:00;;;;;;;1999.90;999.90;;;;;;;;;;4994508;28;20044;-94
2023/10/23 00:36:26;;;;;;;1999.90;999.90;;;;;;;;;;5004151;28;20053;-95
2023/10/23 00:38:52;;;;;;;1999.90;999.90;;;;;;;;;;5018361;28;20014;-92
2023/10/23 00:41:18;;;;;;;1999.90;999.90;;;;;;;;;;5007410;28;20163;-94
2023/10/23 00:43:45;;;;;;;1999.90;999.90;;;;;;;;;;5003191;28;20030;-93
2023/10/23 00:46:13;;;;;;;1999.90;999.90;;;;;;;;;;4997965;28;20049;-93
2023/10/23 00:48:39;;;;;;;1999.90;999.90;;;;;;;;;;4994115;28;20034;-94
2023/10/23 00:51:05;;;;;;;1999.90;999.90;;;;;;;;;;4994106;28;20019;-94
2023/10/23 00:53:37;;;;;;;1999.90;999.90;;;;;;;;;;4993967;28;20042;-92
2023/10/23 00:56:07;;;;;;;1999.90;999.90;;;;;;;;;;4994173;28;20026;-95
2023/10/23 00:58:33;;;;;;;1999.90;999.90;;;;;;;;;;4994689;28;20501;-94
2023/10/23 01:01:01;;;;;;;1999.90;999.90;;;;;;;;;;4993818;28;20026;-94
2023/10/23 01:03:27;;;;;;;1999.90;999.90;;;;;;;;;;4995828;28;20037;-92
2023/10/23 01:05:53;;;;;;;1999.90;999.90;;;;;;;;;;4996560;28;20386;-94
2023/10/23 01:08:20;;;;;;;1999.90;999.90;;;;;;;;;;4994103;28;20042;-93
2023/10/23 01:10:46;;;;;;;1999.90;999.90;;;;;;;;;;4993749;28;20027;-94
2023/10/23 01:13:12;;;;;;;1999.90;999.90;;;;;;;;;;4993683;28;20049;-95
2023/10/23 01:15:38;;;;;;;1999.90;999.90;;;;;;;;;;4993663;28;20390;-93
2023/10/23 01:18:06;;;;;;;1999.90;999.90;;;;;;;;;;4993666;28;20066;-94
2023/10/23 01:20:32;;;;;;;1999.90;999.90;;;;;;;;;;4993824;28;20037;-94
2023/10/23 01:22:59;;;;;;;1999.90;999.90;;;;;;;;;;4993696;28;20097;-94
2023/10/23 01:25:25;;;;;;;1999.90;999.90;;;;;;;;;;4993698;28;20117;-94
2023/10/23 01:27:51;;;;;;;1999.90;999.90;;;;;;;;;;4993589;28;20053;-94
2023/10/23 01:30:18;;;;;;;1999.90;999.90;;;;;;;;;;4993660;28;20035;-95
2023/10/23 01:32:44;;;;;;;1999.90;999.90;;;;;;;;;;4993848;28;20082;-92
2023/10/23 01:35:11;;;;;;;1999.90;999.90;;;;;;;;;;4993636;28;20510;-94
2023/10/23 01:37:37;;;;;;;1999.90;999.90;;;;;;;;;;4993455;28;20181;-95
2023/10/23 01:40:04;;;;;;;1999.90;999.90;;;;;;;;;;4993534;28;20438;-94
2023/10/23 01:42:30;;;;;;;1999.90;999.90;;;;;;;;;;4990913;28;20475;-92
2023/10/23 01:44:57;;;;;;;1999.90;999.90;;;;;;;;;;4993648;28;20046;-94
2023/10/23 01:47:24;;;;;;;1954.75;975.58;;;;;;;;;;4993715;28;20034;-93
2023/10/23 01:49:50;;;;;;;1999.90;999.90;;;;;;;;;;4994303;28;20495;-94
2023/10/23 01:52:16;;;;;;;1999.90;999.90;;;;;;;;;;4997236;28;20026;-95
2023/10/23 01:54:45;;;;;;;1999.90;999.90;;;;;;;;;;4997246;28;20117;-95
2023/10/23 01:57:12;;;;;;;1999.90;999.90;;;;;;;;;;4997595;28;20031;-93
2023/10/23 01:59:39;;;;;;;1999.90;999.90;;;;;;;;;;4997172;28;20022;-94
2023/10/23 02:02:05;;;;;;;1999.90;999.90;;;;;;;;;;4997337;28;20048;-94
2023/10/23 02:04:35;;;;;;;1999.90;999.90;;;;;;;;;;4997190;28;20034;-94
2023/10/23 02:07:04;;;;;;;1999.90;999.90;;;;;;;;;;4996856;28;20027;-94
2023/10/23 02:09:32;;;;;;;1999.90;999.90;;;;;;;;;;4997137;28;20030;-95
2023/10/23 02:12:00;;;;;;;1999.90;999.90;;;;;;;;;;4997217;28;20038;-94
2023/10/23 02:14:27;;;;;;;1999.90;999.90;;;;;;;;;;4997199;28;20065;-95
2023/10/23 02:16:53;;;;;;;1999.90;999.90;;;;;;;;;;4996832;28;20093;-94
2023/10/23 02:19:19;;;;;;;1999.90;999.90;;;;;;;;;;4996980;28;20439;-94
2023/10/23 02:21:54;;;;;;;1999.90;999.90;;;;;;;;;;4996810;28;20121;-94
2023/10/23 02:24:20;;;;;;;1771.63;890.83;;;;;;;;;;4996985;28;20029;-94
2023/10/23 02:26:47;;;;;;;1999.90;999.90;;;;;;;;;;4996685;28;20027;-94
2023/10/23 02:29:13;;;;;;;1999.90;999.90;;;;;;;;;;4998129;28;20092;-94
2023/10/23 02:31:39;;;;;;;1999.90;999.90;;;;;;;;;;4996920;28;20061;-94
2023/10/23 02:34:06;;;;;;;1999.90;999.90;;;;;;;;;;4996495;28;20068;-94
2023/10/23 02:36:32;;;;;;;1999.90;999.90;;;;;;;;;;4996551;28;20046;-95
2023/10/23 02:38:59;;;;;;;1999.90;999.90;;;;;;;;;;4997371;28;20455;-93
2023/10/23 02:41:25;;;;;;;1999.90;999.90;;;;;;;;;;4993270;28;20510;-94
2023/10/23 02:43:51;;;;;;;1999.90;999.90;;;;;;;;;;4977445;28;20038;-94
2023/10/23 02:46:17;;;;;;;1999.90;999.90;;;;;;;;;;4980596;28;20115;-93
2023/10/23 02:48:43;;;;;;;1999.90;997.65;;;;;;;;;;5000654;28;20026;-94
2023/10/23 02:51:11;;;;;;;1999.90;999.90;;;;;;;;;;4977265;28;20480;-93
2023/10/23 02:53:37;;;;;;;1999.90;999.90;;;;;;;;;;4976747;28;20045;-94
2023/10/23 02:56:03;;;;;;;1895.03;930.08;;;;;;;;;;4976757;28;20026;-93
2023/10/23 02:58:29;;;;;;;1856.68;936.25;;;;;;;;;;4976684;28;20027;-94
2023/10/23 03:00:55;;;;;;;1996.95;999.85;;;;;;;;;;4976521;28;20102;-94
2023/10/23 03:03:21;;;;;;;1977.70;963.35;;;;;;;;;;4984182;28;20034;-95
2023/10/23 03:05:47;;;;;;;1889.85;929.08;;;;;;;;;;4996172;28;20029;-93
2023/10/23 03:08:14;;;;;;;1921.60;999.90;;;;;;;;;;4996182;28;20516;-95
2023/10/23 03:10:40;;;;;;;1767.80;866.53;;;;;;;;;;4996353;28;20113;-95
2023/10/23 03:13:07;;;;;;;1855.75;981.90;;;;;;;;;;4996448;28;20027;-95
2023/10/23 03:15:33;;;;;;;1999.90;999.90;;;;;;;;;;4996436;28;20061;-93
2023/10/23 03:18:03;;;;;;;1680.47;862.97;;;;;;;;;;4996379;28;20022;-93
2023/10/23 03:20:29;;;;;;;1783.70;903.92;;;;;;;;;;4995884;28;20438;-94
2023/10/23 03:22:56;;;;;;;1999.90;999.90;;;;;;;;;;4996668;28;20023;-93
2023/10/23 03:25:22;;;;;;;1999.90;999.90;;;;;;;;;;4995700;28;20491;-94
2023/10/23 03:27:48;;;;;;;1999.90;999.90;;;;;;;;;;4995664;28;20023;-95
2023/10/23 03:30:15;;;;;;;1999.90;999.90;;;;;;;;;;4995744;28;20732;-95
2023/10/23 03:32:41;;;;;;;1999.90;999.90;;;;;;;;;;4987613;28;20037;-95
2023/10/23 03:35:08;;;;;;;1999.90;999.90;;;;;;;;;;4995605;28;20030;-95
2023/10/23 03:37:34;;;;;;;1975.22;999.90;;;;;;;;;;4995394;28;20450;-93
2023/10/23 03:40:00;;;;;;;1999.90;999.90;;;;;;;;;;4995550;28;20089;-92
2023/10/23 03:42:26;;;;;;;1999.90;999.90;;;;;;;;;;4995535;28;20093;-95
2023/10/23 03:44:52;;;;;;;1999.90;999.90;;;;;;;;;;5010663;28;20017;-94
2023/10/23 03:47:18;;;;;;;1999.90;999.90;;;;;;;;;;5008433;28;20038;-95
2023/10/23 03:49:44;;;;;;;1999.90;999.90;;;;;;;;;;5007089;28;20050;-94
2023/10/23 03:52:10;;;;;;;1999.90;999.90;;;;;;;;;;5004851;28;20026;-95
2023/10/23 03:54:38;;;;;;;1999.90;999.90;;;;;;;;;;5002512;28;20038;-94
2023/10/23 03:57:04;;;;;;;1999.90;999.90;;;;;;;;;;4984823;28;20030;-94
2023/10/23 03:59:31;;;;;;;1999.90;999.90;;;;;;;;;;4986341;28;20026;-95
2023/10/23 04:01:58;;;;;;;1999.90;999.90;;;;;;;;;;4981013;28;20062;-96
2023/10/23 04:04:24;;;;;;;1999.90;999.90;;;;;;;;;;4985923;28;20030;-93
2023/10/23 04:06:51;;;;;;;1988.60;999.90;;;;;;;;;;4995381;28;20050;-95
2023/10/23 04:09:17;;;;;;;1999.90;999.90;;;;;;;;;;4994839;28;20022;-94
2023/10/23 04:11:43;;;;;;;1999.90;999.90;;;;;;;;;;4995069;28;20026;-95
2023/10/23 04:14:10;;;;;;;1999.90;999.90;;;;;;;;;;4994732;28;20030;-94
2023/10/23 04:16:36;;;;;;;1999.90;999.90;;;;;;;;;;4976030;28;20105;-94
2023/10/23 04:19:03;;;;;;;1999.90;999.90;;;;;;;;;;4976493;28;20110;-94
2023/10/23 04:21:29;;;;;;;1999.90;999.90;;;;;;;;;;4999378;28;20023;-94
2023/10/23 04:23:55;;;;;;;1999.90;999.90;;;;;;;;;;4995048;28;20030;-94
2023/10/23 04:26:21;;;;;;;1999.90;999.90;;;;;;;;;;4994825;28;20037;-95
2023/10/23 04:28:47;;;;;;;1999.90;999.90;;;;;;;;;;4984345;28;20031;-96
2023/10/23 04:31:14;;;;;;;1999.90;999.90;;;;;;;;;;4975580;28;20408;-95
2023/10/23 04:33:40;;;;;;;1999.90;999.90;;;;;;;;;;4975567;28;20034;-94
2023/10/23 04:36:06;;;;;;;1999.90;999.90;;;;;;;;;;4981839;28;20042;-94
2023/10/23 04:38:32;;;;;;;1999.90;999.90;;;;;;;;;;4994693;28;20030;-95
2023/10/23 04:40:59;;;;;;;1999.90;999.90;;;;;;;;;;4994787;28;20023;-94
2023/10/23 04:43:25;;;;;;;1999.90;999.90;;;;;;;;;;4994321;28;20023;-94
2023/10/23 04:45:55;;;;;;;1999.90;999.90;;;;;;;;;;4994417;28;20070;-94
2023/10/23 04:48:21;;;;;;;1999.90;999.90;;;;;;;;;;4996368;28;20049;-93
2023/10/23 04:50:47;;;;;;;1999.90;999.90;;;;;;;;;;5000875;28;20030;-95
2023/10/23 04:53:14;;;;;;;1970.10;999.90;;;;;;;;;;4998050;28;20129;-95
2023/10/23 04:55:40;;;;;;;1999.90;999.90;;;;;;;;;;4994921;28;20023;-95
2023/10/23 04:58:07;;;;;;;1999.90;999.90;;;;;;;;;;4996363;28;20034;-94
2023/10/23 05:00:36;;;;;;;1999.90;999.90;;;;;;;;;;4994458;28;20058;-94
2023/10/23 05:03:03;;;;;;;1999.90;999.90;;;;;;;;;;4994271;28;20023;-93
2023/10/23 05:05:30;;;;;;;1999.90;999.90;;;;;;;;;;4994644;28;20458;-92
2023/10/23 05:08:05;;;;;;;1999.90;999.90;;;;;;;;;;5000388;28;20022;-93
2023/10/23 05:10:31;;;;;;;1999.90;999.90;;;;;;;;;;4999259;28;20041;-94
2023/10/23 05:12:57;;;;;;;1999.90;999.90;;;;;;;;;;4995845;28;20031;-94
2023/10/23 05:15:24;;;;;;;1999.90;999.90;;;;;;;;;;4994945;28;20121;-94
2023/10/23 05:17:50;;;;;;;1999.90;999.90;;;;;;;;;;4995851;28;20026;-96
2023/10/23 05:20:16;;;;;;;1999.90;999.90;;;;;;;;;;4980615;28;20034;-94
2023/10/23 05:22:43;;;;;;;1999.90;999.90;;;;;;;;;;4994992;28;20022;-93
2023/10/23 05:25:09;;;;;;;1999.90;999.90;;;;;;;;;;4993906;28;20030;-93
2023/10/23 05:27:38;;;;;;;1999.90;999.90;;;;;;;;;;4993927;28;20058;-93
2023/10/23 05:30:05;;;;;;;1999.90;999.90;;;;;;;;;;4994475;28;20022;-94
2023/10/23 05:32:34;;;;;;;1999.90;999.90;;;;;;;;;;4994592;28;20041;-93
2023/10/23 05:35:01;;;;;;;1999.90;999.90;;;;;;;;;;4994136;28;20069;-95
2023/10/23 05:37:28;;;;;;;1999.90;999.90;;;;;;;;;;4994849;28;20046;-93
2023/10/23 05:39:54;;;;;;;1999.90;999.90;;;;;;;;;;4993769;28;20031;-93
2023/10/23 05:42:20;;;;;;;1999.90;999.90;;;;;;;;;;4993926;28;20022;-94
2023/10/23 05:44:46;;;;;;;1999.90;999.90;;;;;;;;;;4994384;28;20117;-94
2023/10/23 05:47:12;;;;;;;1999.90;999.90;;;;;;;;;;4993754;28;20053;-93
2023/10/23 05:49:38;;;;;;;1999.90;999.90;;;;;;;;;;4994757;28;20030;-93
2023/10/23 05:52:04;;;;;;;1999.90;999.90;;;;;;;;;;4993532;28;20034;-94
2023/10/23 05:54:31;;;;;;;1993.63;999.90;;;;;;;;;;4993514;28;20125;-93
2023/10/23 05:56:57;;;;;;;1985.88;999.90;;;;;;;;;;4993779;28;20498;-93
2023/10/23 05:59:23;;;;;;;1999.90;999.90;;;;;;;;;;4995260;28;20031;-94
2023/10/23 06:01:49;;;;;;;1999.90;999.90;;;;;;;;;;4993971;28;20105;-94
2023/10/23 06:04:16;;;;;;;1999.90;999.90;;;;;;;;;;4993577;28;20034;-94
2023/10/23 06:06:42;;;;;;;1999.90;999.90;;;;;;;;;;4993751;28;20026;-94
2023/10/23 06:09:09;;;;;;;1999.90;999.90;;;;;;;;;;4994713;28;20030;-94
2023/10/23 06:11:35;;;;;;;1999.90;999.90;;;;;;;;;;5005793;28;20110;-93
2023/10/23 06:14:10;;;;;;;1999.90;999.90;;;;;;;;;;4993981;28;20092;-96
2023/10/23 06:16:36;;;;;;;1999.90;999.90;;;;;;;;;;5000294;28;20034;-93
2023/10/23 06:19:08;;;;;;;1999.90;999.90;;;;;;;;;;4994132;28;20035;-96
2023/10/23 06:21:35;;;;;;;1999.90;999.90;;;;;;;;;;5042464;23;20068;-94
2023/10/23 06:24:01;;;;;;;1999.90;999.90;;;;;;;;;;4974321;28;20526;-93
2023/10/23 06:26:28;;;;;;;1828.32;999.90;;;;;;;;;;4974025;28;20487;-93
2023/10/23 06:28:57;;;;;;;1999.90;999.90;;;;;;;;;;4975681;28;20029;-94
2023/10/23 06:31:23;;;;;;;1884.78;999.90;;;;;;;;;;4973633;28;20118;-94
2023/10/23 06:33:51;;;;;;;1999.90;999.90;;;;;;;;;;4973702;28;20043;-94
2023/10/23 06:36:17;;;;;;;1999.90;999.90;;;;;;;;;;4977518;28;20027;-94
2023/10/23 06:38:44;;;;;;;1895.85;999.90;;;;;;;;;;4981181;28;20035;-93
2023/10/23 06:41:10;;;;;;;1999.90;999.90;;;;;;;;;;4979302;28;20023;-93
2023/10/23 06:43:41;;;;;;;1964.80;999.90;;;;;;;;;;4980682;28;20027;-95
2023/10/23 06:46:09;;;;;;;1944.03;999.90;;;;;;;;;;4978954;28;20026;-93
2023/10/23 06:48:35;;;;;;;1988.20;999.90;;;;;;;;;;4981345;28;20034;-95
2023/10/23 06:51:01;;;;;;;1715.25;999.90;;;;;;;;;;4989935;28;20015;-95
2023/10/23 06:53:27;;;;;;;1359.80;948.25;;;;;;;;;;5000818;28;20046;-95
2023/10/23 06:55:55;;;;;;;1248.53;911.72;;;;;;;;;;4992247;28;20038;-94
2023/10/23 06:58:32;;;;;;;1235.13;909.78;;;;;;;;;;4990399;28;20050;-95
2023/10/23 07:01:05;;;;;;;1287.32;924.03;;;;;;;;;;4978206;28;20023;-95
2023/10/23 07:03:31;;;;;;;1113.68;869.45;;;;;;;;;;4979506;28;20077;-96
2023/10/23 07:05:57;;;;;;;1296.07;906.45;;;;;;;;;;4976737;28;20055;-94
2023/10/23 07:08:23;;;;;;;1413.63;946.30;;;;;;;;;;4977531;28;20062;-95
2023/10/23 07:10:52;;;;;;;1148.55;893.58;;;;;;;;;;4976713;28;20030;-94
2023/10/23 07:13:18;;;;;;;973.80;826.30;;;;;;;;;;4976435;28;20039;-95
2023/10/23 07:15:44;;;;;;;776.10;702.45;;;;;;;;;;4977882;28;20042;-96
2023/10/23 07:18:10;;;;;;;875.80;783.38;;;;;;;;;;4976754;28;20077;-95
2023/10/23 07:20:37;;;;;;;766.33;691.22;;;;;;;;;;4978143;28;20055;-94
2023/10/23 07:23:03;;;;;;;259.75;243.07;;;;;;;;;;4982554;28;20051;-95
2023/10/23 07:25:29;;;;;;;194.43;182.80;;;;;;;;;;4978213;28;20023;-94
2023/10/23 07:27:55;;;;;;;251.25;235.85;;;;;;;;;;4979128;28;20035;-93
2023/10/23 07:30:34;;;;;;;257.55;241.70;;;;;;;;;;4981835;28;20037;-94
2023/10/23 07:33:00;;;;;;;257.88;239.80;;;;;;;;;;4987305;28;20023;-93
2023/10/23 07:35:26;;;;;;;331.27;307.50;;;;;;;;;;5018525;23;20137;-93
2023/10/23 07:37:52;;;;;;;369.85;342.75;;;;;;;;;;4977812;28;20110;-93
2023/10/23 07:40:18;;;;;;;342.15;317.10;;;;;;;;;;4976179;28;20142;-91
2023/10/23 07:42:52;;;;;;;360.90;334.23;;;;;;;;;;4977425;28;20030;-94
2023/10/23 07:45:18;;;;;;;399.52;369.25;;;;;;;;;;4977004;28;20101;-94
2023/10/23 07:47:51;;;;;;;315.90;293.38;;;;;;;;;;4986464;28;20037;-92
2023/10/23 07:50:17;;;;;;;;;;;;;;;;;;4976031;28;20074;-92
2023/10/23 07:52:43;;;;;;;389.85;361.17;;;;;;;;;;4974954;28;19910;-93
2023/10/23 07:55:09;;;;;;;403.58;371.67;;;;;;;;;;4979679;28;20035;-94
2023/10/23 07:57:35;;;;;;;391.70;362.80;;;;;;;;;;4976638;28;20475;-93
2023/10/23 08:00:06;;;;;;;371.90;344.35;;;;;;;;;;4984922;28;20070;-92
2023/10/23 08:02:32;;;;;;;322.92;301.20;;;;;;;;;;4995879;28;20033;-94
2023/10/23 08:04:58;;;;;;;347.17;323.08;;;;;;;;;;4996601;28;20057;-95
2023/10/23 08:07:25;;;;;;;442.85;407.92;;;;;;;;;;4995449;28;20029;-93
2023/10/23 08:09:51;;;;;;;409.80;379.02;;;;;;;;;;4987432;28;20026;-94
2023/10/23 08:12:17;;;;;;;432.10;397.80;;;;;;;;;;4996240;28;20026;-91
2023/10/23 08:14:43;;;;;;;789.35;714.22;;;;;;;;;;4996725;28;20038;-93
2023/10/23 08:17:09;;;;;;;738.22;671.20;;;;;;;;;;4997409;28;20077;-90
2023/10/23 08:19:36;;;;;;;584.55;536.90;;;;;;;;;;4995232;28;20074;-90
2023/10/23 08:22:02;;;;;;;776.85;705.38;;;;;;;;;;4995491;28;20120;-90
2023/10/23 08:24:28;;;;;;;760.90;693.92;;;;;;;;;;4995848;28;20531;-90
2023/10/23 08:26:54;;;;;;;1058.60;875.38;;;;;;;;;;4996009;28;20037;-90
2023/10/23 08:29:20;;;;;;;1120.38;888.33;;;;;;;;;;4994746;28;20026;-91
2023/10/23 08:31:46;;;;;;;1100.43;884.40;;;;;;;;;;4995220;28;20026;-89
2023/10/23 08:34:12;;;;;;;1060.95;863.28;;;;;;;;;;4996983;28;20038;-93
2023/10/23 08:36:38;;;;;;;1182.53;911.33;;;;;;;;;;4988292;28;20060;-93
2023/10/23 08:39:04;;;;;;;1129.07;894.90;;;;;;;;;;4976139;28;20030;-92
2023/10/23 08:41:34;;;;;;;1075.93;872.90;;;;;;;;;;4982883;28;20033;-94
2023/10/23 08:44:03;;;;;;;1090.88;886.03;;;;;;;;;;4984719;28;20422;-93
2023/10/23 08:46:33;;;;;;;935.17;832.90;;;;;;;;;;4966742;28;20035;-92
2023/10/23 08:48:59;;;;;;;1055.47;880.15;;;;;;;;;;4997774;28;20034;-91
2023/10/23 08:51:26;;;;;;;960.58;841.40;;;;;;;;;;4987814;28;20030;-92
2023/10/23 08:53:56;;;;;;;914.58;816.05;;;;;;;;;;4965638;28;20058;-93
2023/10/23 08:56:24;;;;;;;766.88;693.17;;;;;;;;;;4966825;28;20039;-93
2023/10/23 08:58:54;;;;;;;756.38;686.58;;;;;;;;;;4957478;28;20369;-95
2023/10/23 09:01:20;;;;;;;194.65;182.80;;;;;;;;;;4962972;28;20030;-94
2023/10/23 09:03:47;;;;;;;218.95;205.85;;;;;;;;;;4984484;28;20031;-94
2023/10/23 09:06:17;;;;;;;279.20;260.85;;;;;;;;;;4978212;28;20113;-95
2023/10/23 09:08:43;;;;;;;277.77;259.83;;;;;;;;;;4976927;28;20081;-95
2023/10/23 09:11:09;;;;;;;400.70;370.70;;;;;;;;;;4979045;28;20480;-94
2023/10/23 09:13:39;;;;;;;360.60;333.58;;;;;;;;;;4988276;28;20129;-94
2023/10/23 09:16:06;;;;;;;384.90;356.75;;;;;;;;;;4994553;28;20022;-94
2023/10/23 09:18:33;;;;;;;410.52;378.48;;;;;;;;;;4996990;28;20030;-93
2023/10/23 09:20:59;;;;;;;294.95;274.60;;;;;;;;;;4999427;28;20011;-93
2023/10/23 09:23:27;;;;;;;414.60;383.15;;;;;;;;;;4988864;28;20030;-93
2023/10/23 09:26:00;;;;;;;375.63;347.55;;;;;;;;;;4977606;28;20027;-93
2023/10/23 09:28:28;;;;;;;448.85;413.33;;;;;;;;;;4974675;28;20038;-92
2023/10/23 09:36:52;;;;;;;330.80;306.80;;;;;;;;;;4993564;28;19940;-93
2023/10/23 09:39:22;;;;;;;461.23;425.08;;;;;;;;;;4994944;28;20022;-95
2023/10/23 09:41:48;;;;;;;540.20;494.83;;;;;;;;;;4979824;28;20023;-95
2023/10/23 09:44:17;;;;;;;418.17;386.67;;;;;;;;;;4977647;28;20497;-95
2023/10/23 09:46:48;;;;;;;430.83;396.73;;;;;;;;;;4977438;28;20027;-95
2023/10/23 09:49:15;;;;;;;446.55;412.08;;;;;;;;;;4976659;28;20042;-93
2023/10/23 09:51:41;;;;;;;360.10;334.55;;;;;;;;;;4977522;28;20022;-94
2023/10/23 09:54:14;;;;;;;773.42;699.40;;;;;;;;;;4978805;28;20039;-91
2023/10/23 09:56:45;;;;;;;676.80;615.17;;;;;;;;;;4977566;28;20022;-90
2023/10/23 09:59:13;;;;;;;761.85;689.72;;;;;;;;;;4988467;28;20065;-95
2023/10/23 10:12:03;;;;;;;790.97;715.95;;;;;;;;;;5499286;23;20387;-95
2023/10/23 10:15:15;;;;;;;837.72;752.05;;;;;;;;;;5873670;23;20055;-96
2023/10/23 10:30:23;;;;;;;1035.95;877.00;;;;;;;;;;4937571;29;20074;-96
2023/10/23 10:39:50;;;;;;;;;;;;;;;;;;;;;
2023/10/23 10:57:13;;;;;;;921.30;821.78;;;;;;;;;;5017349;28;20068;-93
2023/10/23 10:59:40;;;;;;;999.35;859.00;;;;;;;;;;4999738;28;20037;-94
2023/10/23 11:02:08;;;;;;;1057.93;878.65;;;;;;;;;;4999766;28;20497;-92
2023/10/23 11:04:34;;;;;;;982.10;851.67;;;;;;;;;;4999581;28;20022;-93
2023/10/23 11:07:00;;;;;;;1005.33;862.75;;;;;;;;;;4999757;28;20030;-93
2023/10/23 11:09:27;;;;;;;1059.80;878.30;;;;;;;;;;4999494;28;20463;-92
2023/10/23 11:11:55;;;;;;;966.88;852.85;;;;;;;;;;4999317;28;20029;-92
2023/10/23 11:14:21;;;;;;;921.95;821.30;;;;;;;;;;4999318;28;20088;-93
2023/10/23 11:16:47;;;;;;;1049.93;872.28;;;;;;;;;;4999498;28;20037;-94
2023/10/23 11:19:13;;;;;;;1028.18;869.17;;;;;;;;;;4999294;28;20025;-94
2023/10/23 11:21:40;;;;;;;993.97;863.45;;;;;;;;;;5016814;28;20026;-93
2023/10/23 11:24:06;;;;;;;933.70;831.65;;;;;;;;;;4998669;28;20037;-93
2023/10/23 11:26:39;;;;;;;902.22;806.47;;;;;;;;;;5000977;28;20029;-93
2023/10/23 11:29:11;;;;;;;1016.83;851.85;;;;;;;;;;4999771;28;20026;-92
2023/10/23 11:31:39;;;;;;;871.55;786.40;;;;;;;;;;5000732;28;20034;-90
2023/10/23 11:34:12;;;;;;;944.88;838.53;;;;;;;;;;4999002;28;20092;-93
2023/10/23 11:36:38;;;;;;;1133.67;919.37;;;;;;;;;;4999324;28;20022;-93
2023/10/23 11:39:13;;;;;;;1129.60;891.17;;;;;;;;;;4998818;28;20037;-93
2023/10/23 11:41:39;;;;;;;890.53;801.75;;;;;;;;;;4999403;28;20021;-93
2023/10/23 11:44:07;;;;;;;934.58;835.47;;;;;;;;;;5018249;28;20058;-91
2023/10/23 11:46:39;;;;;;;1021.95;883.95;;;;;;;;;;5006820;28;20045;-93
2023/10/23 11:49:09;;;;;;;958.35;853.10;;;;;;;;;;4995547;28;20061;-93
2023/10/23 11:51:35;;;;;;;1122.60;880.17;;;;;;;;;;4995122;28;20023;-93
2023/10/23 11:54:08;;;;;;;931.88;833.28;;;;;;;;;;4995038;28;20034;-93
2023/10/23 11:56:38;;;;;;;1122.68;881.75;;;;;;;;;;4996129;28;20049;-94
2023/10/23 11:59:08;;;;;;;925.25;826.60;;;;;;;;;;4995273;28;20030;-94
2023/10/23 12:01:37;;;;;;;974.67;861.33;;;;;;;;;;4995160;28;20092;-94
2023/10/23 12:04:06;;;;;;;979.78;858.13;;;;;;;;;;4995264;28;20022;-94
2023/10/23 12:06:32;;;;;;;1008.92;869.47;;;;;;;;;;4995143;28;20033;-93
2023/10/23 12:08:58;;;;;;;946.13;844.67;;;;;;;;;;4994985;28;20489;-92
2023/10/23 12:11:25;;;;;;;1193.03;922.92;;;;;;;;;;4995077;28;20158;-93
2023/10/23 12:13:57;;;;;;;926.25;822.30;;;;;;;;;;4994954;28;20034;-94
2023/10/23 12:16:30;;;;;;;1038.05;883.83;;;;;;;;;;4995340;28;20030;-93
2023/10/23 12:18:56;;;;;;;959.05;839.75;;;;;;;;;;5017707;28;20014;-91
2023/10/23 12:21:23;;;;;;;1140.28;911.80;;;;;;;;;;5012745;28;20057;-93
2023/10/23 12:23:52;;;;;;;1052.95;867.10;;;;;;;;;;5001664;28;20018;-94
2023/10/23 12:26:25;;;;;;;1040.50;867.28;;;;;;;;;;4996089;28;20026;-93
2023/10/23 12:28:54;;;;;;;979.08;871.15;;;;;;;;;;4993965;28;20053;-94
2023/10/23 12:31:20;;;;;;;1127.13;897.20;;;;;;;;;;4994466;28;20035;-93
2023/10/23 12:34:16;;;;;;;943.30;843.42;;;;;;;;;;4994220;28;20038;-92
2023/10/23 12:36:42;;;;;;;983.47;845.08;;;;;;;;;;4977671;28;20121;-92
2023/10/23 12:39:46;;;;;;;1049.78;882.22;;;;;;;;;;4994177;28;20395;-96
2023/10/23 12:42:12;;;;;;;992.25;855.85;;;;;;;;;;4996283;23;20051;-93
2023/10/23 12:45:03;;;;;;;;;;;;;;;;;;;;;
2023/10/23 12:47:35;;;;;;;971.72;838.72;;;;;;;;;;4978953;28;20543;-95
2023/10/23 12:50:04;;;;;;;911.38;816.03;;;;;;;;;;4976395;28;20030;-94
2023/10/23 12:52:30;;;;;;;982.75;863.85;;;;;;;;;;4975646;28;20053;-94
2023/10/23 12:54:56;;;;;;;913.80;816.60;;;;;;;;;;4978458;28;20035;-96
2023/10/23 12:57:23;;;;;;;1054.57;867.38;;;;;;;;;;4977974;28;20054;-95
2023/10/23 12:59:49;;;;;;;1164.72;897.30;;;;;;;;;;4975362;28;20077;-96
2023/10/23 13:02:15;;;;;;;1115.07;897.13;;;;;;;;;;4975382;28;20056;-95
2023/10/23 13:04:42;;;;;;;932.90;823.22;;;;;;;;;;4976443;28;20044;-92
2023/10/23 13:07:08;;;;;;;891.13;795.58;;;;;;;;;;4977252;28;20035;-94
2023/10/23 13:09:46;;;;;;;1072.63;888.28;;;;;;;;;;4977294;28;20023;-93
2023/10/23 13:12:16;;;;;;;1134.70;891.40;;;;;;;;;;4978098;28;20412;-92
2023/10/23 13:14:42;;;;;;;1012.13;869.70;;;;;;;;;;4976303;28;20109;-94
2023/10/23 13:19:55;;;;;;;1125.53;899.50;;;;;;;;;;4983684;28;20042;-93
2023/10/23 13:22:21;;;;;;;1132.35;922.08;;;;;;;;;;4983414;28;20456;-95
2023/10/23 13:24:47;;;;;;;1170.80;908.13;;;;;;;;;;4994102;28;20073;-94
2023/10/23 13:27:15;;;;;;;979.50;860.05;;;;;;;;;;4993835;28;20046;-93
2023/10/23 13:29:44;;;;;;;993.40;851.65;;;;;;;;;;4995081;28;20037;-96
2023/10/23 13:32:20;;;;;;;1127.65;894.83;;;;;;;;;;4994552;28;20528;-94
2023/10/23 13:34:46;;;;;;;1091.57;863.38;;;;;;;;;;4993141;28;20514;-94
2023/10/23 13:37:12;;;;;;;958.95;831.50;;;;;;;;;;4994559;28;20049;-95
2023/10/23 13:39:38;;;;;;;1057.07;903.50;;;;;;;;;;4995403;28;20033;-93
2023/10/23 13:42:04;;;;;;;934.75;834.20;;;;;;;;;;4996407;28;20074;-91
2023/10/23 13:44:59;;;;;;;1033.13;858.28;;;;;;;;;;4996731;28;20046;-96
2023/10/23 13:47:34;;;;;;;1094.28;905.42;;;;;;;;;;4947282;28;20049;-95
2023/10/23 13:50:01;;;;;;;1247.50;933.35;;;;;;;;;;4997720;28;20049;-95
2023/10/23 13:52:27;;;;;;;1079.53;879.85;;;;;;;;;;5000294;28;20034;-96
2023/10/23 13:55:05;;;;;;;1157.40;901.13;;;;;;;;;;5406999;23;20145;-96
2023/10/23 13:57:34;;;;;;;1183.85;914.58;;;;;;;;;;4983114;28;20022;-95
2023/10/23 14:00:00;;;;;;;1089.05;883.67;;;;;;;;;;4980297;28;20471;-94
2023/10/23 14:02:38;;;;;;;1022.85;865.17;;;;;;;;;;4983555;28;20039;-95
2023/10/23 14:11:18;;;;;;;1087.07;911.33;;;;;;;;;;5004549;28;20037;-93
2023/10/23 14:13:55;;;;;;;1114.55;915.90;;;;;;;;;;4991817;28;20019;-96
2023/10/23 14:16:21;;;;;;;1008.10;870.92;;;;;;;;;;4988187;28;20039;-96
2023/10/23 14:18:47;;;;;;;890.83;799.40;;;;;;;;;;4982546;28;20471;-95
2023/10/23 14:21:13;;;;;;;946.03;845.08;;;;;;;;;;4996776;28;20034;-93
2023/10/23 14:23:43;;;;;;;1039.68;868.95;;;;;;;;;;5003592;28;20031;-96
2023/10/23 14:28:39;;;;;;;1005.05;861.60;;;;;;;;;;4983449;28;20389;-96
2023/10/23 14:31:05;;;;;;;1140.85;889.08;;;;;;;;;;4969692;28;20034;-94
2023/10/23 14:33:31;;;;;;;1256.82;921.65;;;;;;;;;;4962952;28;20125;-94
2023/10/23 14:35:57;;;;;;;971.38;846.47;;;;;;;;;;4965660;28;20027;-95
2023/10/23 14:38:25;;;;;;;972.13;835.90;;;;;;;;;;4964541;28;20033;-95
2023/10/23 14:40:54;;;;;;;1130.50;888.78;;;;;;;;;;4958314;28;20054;-92
2023/10/23 14:43:34;;;;;;;980.13;855.33;;;;;;;;;;4944636;29;20059;-94
2023/10/23 14:46:00;;;;;;;1090.38;872.95;;;;;;;;;;4958153;29;20027;-95
2023/10/23 14:48:27;;;;;;;1013.50;865.10;;;;;;;;;;4968596;28;20548;-94
2023/10/23 14:51:14;;;;;;;1091.32;870.75;;;;;;;;;;4979318;28;20472;-94
2023/10/23 14:53:39;;;;;;;958.42;844.42;;;;;;;;;;4976374;28;20047;-95